Terminal Aerodrome Forecast
Issued by NWS

Home | Current Version | Previous Version | Text Only | Print | Product List | Glossary On
Versions: 1 2 3 4 5 6 7 8 9 10 11 12 13 14 15 16 17
000
FTUS41 KBTV 041720
TAFRUT
TAF
KRUT 041720Z 0418/0518 22006KT P6SM VCTS SCT040CB BKN120
      TEMPO 0418/0419 3SM SHRA BKN040
     FM042000 22005KT P6SM VCSH BKN040 BKN100
     FM050100 16004KT P6SM SCT060 BKN120
     FM050600 16005KT P6SM VCSH BKN050 OVC100
     FM051200 27006KT P6SM SCT050 BKN100
      AMD NOT SKED=

USA.gov is the U.S. government's official web portal to all federal, state and local government web resources and services.